Time;durP1;ratioP1;P1;durP2;ratioP2;P2;SDS_P1;SDS_P2;PMS_P1;PMS_P2;Temp;Humidity;BMP_temperature;BMP_pressure;BME280_temperature;BME280_humidity;BME280_pressure;Samples;Min_cycle;Max_cycle;Signal;HPM_P1;HPM_P2
2021/10/26 00:00:44;;;;;;;0.20;0.20;;;10.30;99.90;;;;;;6298759;22;20025;-80
2021/10/26 00:03:11;;;;;;;0.00;0.00;;;10.30;99.90;;;;;;6273226;22;20015;-80
2021/10/26 00:05:38;;;;;;;0.20;0.20;;;10.30;99.90;;;;;;6298770;22;20023;-80
2021/10/26 00:08:04;;;;;;;0.00;0.00;;;10.30;99.90;;;;;;6273260;22;20012;-80
2021/10/26 00:10:31;;;;;;;0.25;0.25;;;10.30;99.90;;;;;;6248293;22;20019;-80
2021/10/26 00:12:58;;;;;;;0.00;0.00;;;10.40;99.90;;;;;;6273008;22;20019;-80
2021/10/26 00:15:25;;;;;;;0.00;0.00;;;10.40;99.90;;;;;;6248367;22;20039;-80
2021/10/26 00:17:52;;;;;;;0.10;0.10;;;10.40;99.90;;;;;;6298731;22;20015;-80
2021/10/26 00:20:19;;;;;;;0.08;0.08;;;10.40;99.90;;;;;;6298177;22;20394;-80
2021/10/26 00:22:46;;;;;;;0.10;0.10;;;10.40;99.90;;;;;;6273050;22;20011;-80
2021/10/26 00:25:13;;;;;;;0.32;0.28;;;10.40;99.90;;;;;;6298039;22;20011;-80
2021/10/26 00:27:40;;;;;;;0.00;0.00;;;10.40;99.90;;;;;;6298664;22;20012;-80
2021/10/26 00:30:07;;;;;;;0.10;0.10;;;10.50;99.90;;;;;;6247502;22;20123;-80
2021/10/26 00:32:34;;;;;;;0.00;0.00;;;10.50;99.90;;;;;;6248599;22;20011;-80
2021/10/26 00:35:01;;;;;;;0.00;0.00;;;10.50;99.90;;;;;;6298600;22;20584;-80
2021/10/26 00:37:29;;;;;;;0.00;0.00;;;10.50;99.90;;;;;;6248889;22;20038;-80
2021/10/26 00:39:56;;;;;;;0.10;0.10;;;10.50;99.90;;;;;;6273246;22;20051;-80
2021/10/26 00:42:22;;;;;;;0.10;0.10;;;10.50;99.90;;;;;;6273071;22;20088;-80
2021/10/26 00:44:49;;;;;;;0.00;0.00;;;10.50;99.90;;;;;;6298638;22;20039;-80
2021/10/26 00:47:16;;;;;;;0.00;0.00;;;10.50;99.90;;;;;;6247507;22;20029;-80
2021/10/26 00:49:42;;;;;;;0.00;0.00;;;10.50;99.90;;;;;;6248141;22;20436;-80
2021/10/26 00:52:09;;;;;;;0.00;0.00;;;10.50;99.90;;;;;;6272611;22;20094;-80
2021/10/26 00:54:36;;;;;;;0.00;0.00;;;10.50;99.90;;;;;;6273042;22;20015;-80
2021/10/26 00:57:03;;;;;;;0.00;0.00;;;10.40;99.90;;;;;;6247662;22;20018;-80
2021/10/26 00:59:30;;;;;;;0.00;0.00;;;10.40;99.90;;;;;;6298235;22;20019;-80
2021/10/26 01:01:56;;;;;;;0.00;0.00;;;10.30;99.90;;;;;;6247711;22;20063;-80
2021/10/26 01:04:23;;;;;;;0.10;0.10;;;10.30;99.90;;;;;;6247698;22;20352;-80
2021/10/26 01:06:50;;;;;;;0.10;0.10;;;10.20;99.90;;;;;;6272971;22;20482;-80
2021/10/26 01:09:17;;;;;;;0.00;0.00;;;10.20;99.90;;;;;;6272605;22;20061;-80
2021/10/26 01:11:44;;;;;;;0.00;0.00;;;10.20;99.90;;;;;;6298308;22;20019;-80
2021/10/26 01:14:11;;;;;;;0.25;0.15;;;10.10;99.90;;;;;;6272738;22;20019;-80
2021/10/26 01:16:38;;;;;;;0.00;0.00;;;10.10;99.90;;;;;;6273183;22;20018;-80
2021/10/26 01:19:05;;;;;;;0.20;0.20;;;10.10;99.90;;;;;;6272396;22;20383;-80
2021/10/26 01:21:32;;;;;;;0.00;0.00;;;10.20;99.90;;;;;;6247763;22;20015;-80
2021/10/26 01:23:58;;;;;;;0.00;0.00;;;10.10;99.90;;;;;;6247657;22;20026;-80
2021/10/26 01:26:25;;;;;;;0.00;0.00;;;10.10;99.90;;;;;;6297437;22;20016;-80
2021/10/26 01:28:53;;;;;;;0.00;0.00;;;10.10;99.90;;;;;;6298083;22;20109;-80
2021/10/26 01:31:20;;;;;;;0.00;0.00;;;10.20;99.90;;;;;;6297779;22;20102;-80
2021/10/26 01:33:47;;;;;;;0.00;0.00;;;10.20;99.90;;;;;;6297943;22;20016;-80
2021/10/26 01:36:19;;;;;;;0.00;0.00;;;10.20;99.90;;;;;;6297620;22;20054;-80
2021/10/26 01:38:46;;;;;;;0.00;0.00;;;10.30;99.90;;;;;;6297955;22;20153;-80
2021/10/26 01:41:12;;;;;;;0.08;0.08;;;10.30;99.90;;;;;;6296876;22;20080;-80
2021/10/26 01:43:39;;;;;;;0.00;0.00;;;10.30;99.90;;;;;;6272642;22;20019;-80
2021/10/26 01:46:06;;;;;;;0.00;0.00;;;10.30;99.90;;;;;;6272156;22;20073;-80
2021/10/26 01:48:32;;;;;;;0.00;0.00;;;10.30;99.90;;;;;;6247151;22;20015;-80
2021/10/26 01:51:01;;;;;;;0.10;0.08;;;10.30;99.90;;;;;;6272308;22;20436;-80
2021/10/26 01:53:28;;;;;;;0.22;0.22;;;10.30;99.90;;;;;;6322827;22;20080;-80
2021/10/26 01:55:54;;;;;;;0.00;0.00;;;10.30;99.90;;;;;;6247398;22;20439;-80
2021/10/26 01:58:21;;;;;;;0.00;0.00;;;10.30;99.90;;;;;;6247077;22;20026;-80
2021/10/26 02:00:48;;;;;;;0.10;0.10;;;10.40;99.90;;;;;;6247354;22;20023;-80
2021/10/26 02:03:15;;;;;;;0.28;0.15;;;10.30;99.90;;;;;;6272052;22;20034;-80
2021/10/26 02:05:41;;;;;;;0.00;0.00;;;10.30;99.90;;;;;;6297827;22;20015;-80
2021/10/26 02:08:08;;;;;;;0.00;0.00;;;10.30;99.90;;;;;;6272374;22;20022;-80
2021/10/26 02:10:35;;;;;;;0.45;0.35;;;10.30;99.90;;;;;;6297293;22;20444;-80
2021/10/26 02:13:01;;;;;;;0.52;0.15;;;10.20;99.90;;;;;;6272437;22;20503;-80
2021/10/26 02:15:28;;;;;;;0.40;0.25;;;10.20;99.90;;;;;;6322553;22;20057;-80
2021/10/26 02:17:55;;;;;;;0.10;0.10;;;10.10;99.90;;;;;;6247224;22;20375;-80
2021/10/26 02:20:21;;;;;;;0.10;0.10;;;10.10;99.90;;;;;;6271672;22;20016;-80
2021/10/26 02:22:48;;;;;;;0.43;0.40;;;10.10;99.90;;;;;;6247164;22;20015;-80
2021/10/26 02:25:15;;;;;;;0.10;0.10;;;10.10;99.90;;;;;;6297339;22;20363;-80
2021/10/26 02:27:41;;;;;;;0.00;0.00;;;10.10;99.90;;;;;;6297501;22;20442;-80
2021/10/26 02:30:09;;;;;;;0.00;0.00;;;10.10;99.90;;;;;;6272171;22;20016;-80
2021/10/26 02:32:36;;;;;;;0.08;0.08;;;10.00;99.90;;;;;;6322777;22;20095;-80
2021/10/26 02:35:03;;;;;;;0.00;0.00;;;10.10;99.90;;;;;;6297592;22;20046;-80
2021/10/26 02:37:30;;;;;;;0.00;0.00;;;10.10;99.90;;;;;;6272088;22;20015;-80
2021/10/26 02:39:57;;;;;;;0.20;0.20;;;10.10;99.90;;;;;;6322904;22;20022;-80
2021/10/26 02:42:23;;;;;;;0.00;0.00;;;10.10;99.90;;;;;;6271653;22;20011;-80
2021/10/26 02:44:50;;;;;;;0.00;0.00;;;10.10;99.90;;;;;;6272170;22;20065;-80
2021/10/26 02:47:16;;;;;;;0.00;0.00;;;10.10;99.90;;;;;;6246488;22;20014;-80
2021/10/26 02:49:43;;;;;;;0.00;0.00;;;10.10;99.90;;;;;;6271980;22;20019;-80
2021/10/26 02:52:10;;;;;;;0.00;0.00;;;10.10;99.90;;;;;;6297040;22;20478;-80
2021/10/26 02:54:37;;;;;;;0.00;0.00;;;10.10;99.90;;;;;;6246650;22;20038;-80
2021/10/26 02:57:04;;;;;;;0.10;0.10;;;10.10;99.90;;;;;;6246905;22;20038;-80
2021/10/26 02:59:31;;;;;;;0.00;0.00;;;10.20;99.90;;;;;;6297003;22;20638;-80
2021/10/26 03:01:58;;;;;;;0.20;0.20;;;10.10;99.90;;;;;;6271925;22;20019;-80
2021/10/26 03:04:24;;;;;;;0.10;0.10;;;10.10;99.90;;;;;;6297092;22;20061;-80
2021/10/26 03:06:51;;;;;;;0.00;0.00;;;10.10;99.90;;;;;;6297396;22;20016;-80
2021/10/26 03:09:18;;;;;;;0.08;0.08;;;10.10;99.90;;;;;;6271930;22;20033;-80
2021/10/26 03:11:44;;;;;;;0.10;0.10;;;10.10;99.90;;;;;;6271813;22;20015;-80
2021/10/26 03:14:11;;;;;;;0.10;0.10;;;10.10;99.90;;;;;;6246904;22;20080;-80
2021/10/26 03:16:38;;;;;;;0.00;0.00;;;10.10;99.90;;;;;;6246555;22;20037;-80
2021/10/26 03:19:05;;;;;;;0.10;0.10;;;10.10;99.90;;;;;;6271839;22;20038;-80
2021/10/26 03:21:34;;;;;;;0.00;0.00;;;10.10;99.90;;;;;;6296912;22;20077;-80
2021/10/26 03:24:02;;;;;;;0.57;0.20;;;10.10;99.90;;;;;;6322602;22;20427;-80
2021/10/26 03:26:29;;;;;;;0.00;0.00;;;10.10;99.90;;;;;;6296868;22;20094;-80
2021/10/26 03:28:56;;;;;;;0.00;0.00;;;10.10;99.90;;;;;;6246918;22;20039;-80
2021/10/26 03:31:23;;;;;;;0.00;0.00;;;10.10;99.90;;;;;;6296695;22;20026;-80
2021/10/26 03:33:50;;;;;;;0.00;0.00;;;10.10;99.90;;;;;;6322602;22;20065;-80
2021/10/26 03:36:17;;;;;;;0.00;0.00;;;10.10;99.90;;;;;;6297450;22;20444;-80
2021/10/26 03:38:44;;;;;;;0.00;0.00;;;10.10;99.90;;;;;;6296813;22;20026;-80
2021/10/26 03:41:11;;;;;;;0.03;0.03;;;10.00;99.90;;;;;;6246380;22;20031;-80
2021/10/26 03:43:38;;;;;;;0.15;0.08;;;10.00;99.90;;;;;;6271540;22;20022;-80
2021/10/26 03:46:05;;;;;;;0.10;0.10;;;10.00;99.90;;;;;;6322419;22;20019;-80
2021/10/26 03:48:32;;;;;;;0.00;0.00;;;9.80;99.90;;;;;;6271314;22;20011;-80
2021/10/26 03:50:59;;;;;;;0.10;0.10;;;9.80;99.90;;;;;;6246910;22;20392;-80
2021/10/26 03:53:27;;;;;;;0.10;0.10;;;9.80;99.90;;;;;;6296880;22;20023;-80
2021/10/26 03:55:55;;;;;;;0.00;0.00;;;9.70;99.90;;;;;;6247419;22;20019;-80
2021/10/26 03:58:22;;;;;;;0.00;0.00;;;9.70;99.90;;;;;;6296929;22;20018;-80
2021/10/26 04:00:48;;;;;;;0.00;0.00;;;9.60;99.90;;;;;;6296492;22;20019;-80
2021/10/26 04:03:15;;;;;;;0.00;0.00;;;9.60;99.90;;;;;;6246829;22;20080;-80
2021/10/26 04:11:13;;;;;;;0.00;0.00;;;9.50;99.90;;;;;;6301285;22;20019;-80
2021/10/26 04:13:40;;;;;;;0.00;0.00;;;9.40;99.90;;;;;;6254283;22;20313;-80
2021/10/26 04:16:07;;;;;;;0.00;0.00;;;9.40;99.90;;;;;;6248631;22;20061;-80
2021/10/26 04:18:34;;;;;;;0.00;0.00;;;9.40;99.90;;;;;;6272782;22;20026;-80
2021/10/26 04:21:00;;;;;;;0.00;0.00;;;9.40;99.90;;;;;;6272999;22;20062;-80
2021/10/26 04:23:28;;;;;;;0.00;0.00;;;9.30;99.90;;;;;;6298104;22;20456;-80
2021/10/26 04:25:55;;;;;;;0.10;0.10;;;9.30;99.90;;;;;;6248871;22;20015;-80
2021/10/26 04:28:22;;;;;;;0.00;0.00;;;9.20;99.90;;;;;;6248216;22;20026;-80
2021/10/26 04:30:49;;;;;;;0.30;0.30;;;9.30;99.90;;;;;;6273070;22;20019;-80
2021/10/26 04:33:16;;;;;;;0.10;0.10;;;9.20;99.90;;;;;;6298590;22;20037;-80
2021/10/26 04:35:43;;;;;;;0.65;0.20;;;9.20;99.90;;;;;;6273146;22;20098;-80
2021/10/26 04:38:09;;;;;;;0.03;0.03;;;9.20;99.90;;;;;;6248333;22;20047;-80
2021/10/26 04:40:36;;;;;;;0.10;0.10;;;9.10;99.90;;;;;;6323812;22;20061;-80
2021/10/26 04:43:04;;;;;;;0.20;0.20;;;9.10;99.90;;;;;;6298237;22;20029;-80
2021/10/26 04:45:32;;;;;;;0.08;0.08;;;9.20;99.90;;;;;;6272572;22;20023;-80
2021/10/26 04:47:59;;;;;;;0.03;0.03;;;9.10;99.90;;;;;;6349474;22;20011;-80
2021/10/26 04:50:31;;;;;;;0.10;0.10;;;9.00;99.90;;;;;;6298369;22;20384;-80
2021/10/26 04:52:58;;;;;;;0.10;0.10;;;9.00;99.90;;;;;;6298406;22;20019;-80
2021/10/26 04:55:25;;;;;;;0.00;0.00;;;9.00;99.90;;;;;;6323909;22;20090;-80
2021/10/26 04:57:52;;;;;;;0.03;0.03;;;9.00;99.90;;;;;;6272708;22;20085;-80
2021/10/26 05:00:19;;;;;;;0.00;0.00;;;8.90;99.90;;;;;;6298195;22;20016;-80
2021/10/26 05:02:45;;;;;;;0.00;0.00;;;8.90;99.90;;;;;;6272783;22;20046;-80
2021/10/26 05:05:12;;;;;;;0.00;0.00;;;8.90;99.90;;;;;;6247936;22;20008;-80
2021/10/26 05:07:39;;;;;;;0.00;0.00;;;8.90;99.90;;;;;;6297959;22;20074;-80
2021/10/26 05:10:06;;;;;;;0.00;0.00;;;8.90;99.90;;;;;;6248127;22;20094;-80
2021/10/26 05:12:33;;;;;;;0.00;0.00;;;8.90;99.90;;;;;;6297964;22;20015;-80
2021/10/26 05:15:00;;;;;;;0.20;0.05;;;8.90;99.90;;;;;;6297613;22;20343;-80
2021/10/26 05:17:28;;;;;;;0.00;0.00;;;8.90;99.90;;;;;;6272900;22;20003;-80
2021/10/26 05:19:56;;;;;;;0.10;0.10;;;8.90;99.90;;;;;;6322992;22;20340;-80
2021/10/26 05:22:25;;;;;;;0.03;0.03;;;8.80;99.90;;;;;;6248307;22;20011;-80
2021/10/26 05:24:52;;;;;;;0.10;0.10;;;8.80;99.90;;;;;;6248217;22;20049;-80
2021/10/26 05:27:19;;;;;;;0.10;0.10;;;8.80;99.90;;;;;;6273018;22;20015;-80
2021/10/26 05:29:47;;;;;;;0.10;0.10;;;8.70;99.90;;;;;;6271793;22;20011;-80
2021/10/26 05:32:14;;;;;;;0.00;0.00;;;8.70;99.90;;;;;;6298501;22;20329;-80
2021/10/26 05:34:41;;;;;;;0.10;0.10;;;8.70;99.90;;;;;;6297672;22;20077;-80
2021/10/26 05:37:10;;;;;;;0.00;0.00;;;8.90;99.90;;;;;;6323342;22;20023;-80
2021/10/26 05:39:38;;;;;;;0.10;0.10;;;8.70;99.90;;;;;;6272436;22;20019;-80
2021/10/26 05:42:06;;;;;;;0.05;0.05;;;8.70;99.90;;;;;;6272575;22;20063;-80
2021/10/26 05:44:34;;;;;;;0.03;0.03;;;8.60;99.90;;;;;;6297914;22;20022;-80
2021/10/26 05:47:01;;;;;;;1.10;0.38;;;8.60;99.90;;;;;;6322939;22;20102;-80
2021/10/26 05:49:28;;;;;;;0.10;0.10;;;8.60;99.90;;;;;;6297552;22;20082;-80
2021/10/26 05:51:56;;;;;;;0.10;0.10;;;8.60;99.90;;;;;;6246801;22;20480;-80
2021/10/26 05:54:22;;;;;;;0.10;0.10;;;8.60;99.90;;;;;;6272667;22;20019;-80
2021/10/26 05:56:49;;;;;;;0.05;0.05;;;8.70;99.90;;;;;;6322759;22;20019;-80
2021/10/26 05:59:16;;;;;;;0.00;0.00;;;8.80;99.90;;;;;;6322866;22;20058;-80
2021/10/26 06:01:43;;;;;;;0.00;0.00;;;8.80;99.90;;;;;;6297202;22;20396;-80
2021/10/26 06:04:09;;;;;;;0.00;0.00;;;8.80;99.90;;;;;;6247506;22;20090;-80
2021/10/26 06:06:37;;;;;;;0.00;0.00;;;8.90;99.90;;;;;;6272124;22;20018;-80
2021/10/26 06:09:04;;;;;;;0.10;0.10;;;9.00;99.90;;;;;;6274043;22;20011;-80
2021/10/26 06:11:31;;;;;;;0.03;0.03;;;9.10;99.90;;;;;;6247321;22;20344;-80
2021/10/26 06:14:04;;;;;;;0.10;0.10;;;9.10;99.90;;;;;;6296872;22;20019;-80
2021/10/26 06:16:33;;;;;;;0.10;0.10;;;9.20;99.90;;;;;;6274806;22;20015;-80
2021/10/26 06:19:00;;;;;;;0.15;0.15;;;9.20;99.90;;;;;;6296669;22;20061;-80
2021/10/26 06:21:27;;;;;;;0.00;0.00;;;9.30;99.90;;;;;;6296784;22;20011;-80
2021/10/26 06:23:55;;;;;;;0.00;0.00;;;9.30;99.90;;;;;;6296246;22;20053;-80
2021/10/26 06:26:23;;;;;;;0.10;0.10;;;9.40;99.90;;;;;;6297085;22;20015;-80
2021/10/26 06:28:50;;;;;;;0.00;0.00;;;9.30;99.90;;;;;;6295706;22;20348;-80
2021/10/26 06:31:17;;;;;;;0.10;0.10;;;9.40;99.90;;;;;;6321837;22;20023;-80
2021/10/26 06:33:44;;;;;;;0.10;0.10;;;9.40;99.90;;;;;;6296173;22;20448;-80
2021/10/26 06:36:11;;;;;;;0.00;0.00;;;9.50;99.90;;;;;;6297328;22;20007;-80
2021/10/26 06:38:39;;;;;;;0.10;0.10;;;9.50;99.90;;;;;;6297284;22;20467;-80
2021/10/26 06:41:06;;;;;;;0.00;0.00;;;9.60;99.90;;;;;;6271517;22;20045;-80
2021/10/26 06:43:36;;;;;;;0.20;0.20;;;9.60;99.90;;;;;;6322817;22;20022;-79
2021/10/26 06:46:04;;;;;;;0.00;0.00;;;9.60;99.90;;;;;;6272323;22;20023;-80
2021/10/26 06:48:30;;;;;;;0.10;0.10;;;9.60;99.90;;;;;;6272129;22;20011;-80
2021/10/26 06:50:57;;;;;;;0.00;0.00;;;9.60;99.90;;;;;;6296449;22;20157;-80
2021/10/26 06:53:25;;;;;;;0.00;0.00;;;9.60;99.90;;;;;;6272165;22;20019;-80
2021/10/26 06:55:53;;;;;;;0.00;0.00;;;9.70;99.90;;;;;;6297515;22;20027;-80
2021/10/26 06:58:20;;;;;;;0.05;0.05;;;9.70;99.90;;;;;;6322756;22;20015;-80
2021/10/26 07:00:47;;;;;;;0.00;0.00;;;9.80;99.90;;;;;;6322198;22;20061;-80
2021/10/26 07:03:14;;;;;;;0.00;0.00;;;9.80;99.90;;;;;;6246931;22;20466;-80
2021/10/26 07:05:40;;;;;;;0.03;0.03;;;9.80;99.90;;;;;;6271974;22;20054;-80
2021/10/26 07:08:07;;;;;;;0.00;0.00;;;9.70;99.90;;;;;;6246493;22;20011;-80
2021/10/26 07:10:34;;;;;;;0.08;0.08;;;9.80;99.90;;;;;;6246978;22;20015;-80
2021/10/26 07:13:03;;;;;;;0.05;0.05;;;9.80;99.90;;;;;;6271699;22;20023;-80
2021/10/26 07:15:32;;;;;;;0.98;0.32;;;9.80;99.90;;;;;;6322544;22;20474;-80
2021/10/26 07:17:59;;;;;;;0.00;0.00;;;9.80;99.90;;;;;;6295806;22;20110;-79
2021/10/26 07:20:26;;;;;;;0.00;0.00;;;9.90;99.90;;;;;;6271700;22;20019;-80
2021/10/26 07:22:54;;;;;;;0.00;0.00;;;9.90;99.90;;;;;;6246469;22;20015;-80
2021/10/26 07:25:22;;;;;;;0.20;0.20;;;9.90;99.90;;;;;;6271763;22;20022;-80
2021/10/26 07:27:52;;;;;;;0.00;0.00;;;9.90;99.90;;;;;;6295825;22;20471;-81
2021/10/26 07:30:19;;;;;;;0.00;0.00;;;9.90;99.90;;;;;;6296854;22;20019;-80
2021/10/26 07:32:46;;;;;;;0.10;0.10;;;10.00;99.90;;;;;;6271022;22;20022;-81
2021/10/26 07:35:14;;;;;;;1.65;0.47;;;10.00;99.90;;;;;;6270632;22;20019;-80
2021/10/26 07:37:43;;;;;;;0.70;0.20;;;10.00;99.90;;;;;;6294029;22;20073;-80
2021/10/26 07:40:11;;;;;;;0.00;0.00;;;10.00;99.90;;;;;;6269935;22;20073;-81
2021/10/26 07:42:37;;;;;;;0.10;0.10;;;10.10;99.90;;;;;;6296811;22;20023;-80
2021/10/26 07:45:06;;;;;;;0.10;0.10;;;10.10;99.90;;;;;;6322105;22;20310;-81
2021/10/26 07:47:34;;;;;;;0.10;0.10;;;10.10;99.90;;;;;;6272549;22;20011;-80
2021/10/26 07:50:01;;;;;;;0.00;0.00;;;10.10;99.90;;;;;;6272649;22;20011;-81
2021/10/26 07:52:28;;;;;;;0.43;0.20;;;10.10;99.90;;;;;;6271677;22;20164;-80
2021/10/26 07:54:55;;;;;;;0.00;0.00;;;10.20;99.90;;;;;;6246566;22;20094;-80
2021/10/26 07:57:23;;;;;;;0.00;0.00;;;10.20;99.90;;;;;;6247127;22;20043;-80
2021/10/26 07:59:54;;;;;;;0.00;0.00;;;10.30;99.90;;;;;;6270830;22;20011;-80
2021/10/26 08:02:22;;;;;;;0.00;0.00;;;10.30;99.90;;;;;;6271749;22;20019;-80
2021/10/26 08:04:49;;;;;;;0.30;0.28;;;10.40;99.90;;;;;;6297891;22;20011;-80
2021/10/26 08:07:17;;;;;;;0.25;0.25;;;10.40;99.90;;;;;;6296182;22;20015;-80
2021/10/26 08:09:49;;;;;;;0.03;0.03;;;10.40;99.90;;;;;;6297760;22;20054;-80
2021/10/26 08:12:17;;;;;;;0.00;0.00;;;10.50;99.90;;;;;;6296489;22;20094;-80
2021/10/26 08:14:45;;;;;;;0.00;0.00;;;10.60;99.90;;;;;;6271867;22;20019;-80
2021/10/26 08:17:12;;;;;;;0.47;0.20;;;10.60;99.90;;;;;;6246436;22;20027;-80
2021/10/26 08:19:41;;;;;;;0.00;0.00;;;10.70;99.90;;;;;;6322294;22;20348;-80
2021/10/26 08:22:13;;;;;;;0.00;0.00;;;10.70;99.90;;;;;;6296880;22;20020;-80
2021/10/26 08:24:41;;;;;;;0.22;0.13;;;10.80;99.90;;;;;;6249724;22;20073;-80
2021/10/26 08:27:10;;;;;;;0.00;0.00;;;10.90;99.90;;;;;;6296905;22;20456;-80
2021/10/26 08:34:52;;;;;;;;;;;11.00;99.90;;;;;;6280632;22;20019;-80
2021/10/26 08:37:19;;;;;;;0.00;0.00;;;11.00;99.90;;;;;;6273061;22;19950;-80
2021/10/26 08:39:46;;;;;;;0.00;0.00;;;11.00;99.90;;;;;;6272286;22;20026;-78
2021/10/26 08:42:17;;;;;;;0.00;0.00;;;11.10;99.90;;;;;;6322615;22;20007;-78
2021/10/26 08:44:44;;;;;;;0.00;0.00;;;11.00;99.90;;;;;;6297944;22;20022;-78
2021/10/26 08:47:15;;;;;;;0.20;0.20;;;11.00;99.90;;;;;;6297372;22;20340;-77
2021/10/26 08:49:46;;;;;;;0.00;0.00;;;11.10;99.90;;;;;;6297281;22;20344;-78
2021/10/26 08:52:13;;;;;;;0.08;0.08;;;11.20;99.90;;;;;;6322814;22;20030;-81
2021/10/26 08:54:40;;;;;;;0.00;0.00;;;11.20;99.90;;;;;;6297774;22;20015;-84
2021/10/26 08:57:07;;;;;;;0.00;0.00;;;11.20;99.90;;;;;;6297644;22;20098;-82
2021/10/26 08:59:33;;;;;;;0.50;0.10;;;11.20;99.90;;;;;;6297954;22;20047;-82
2021/10/26 09:02:00;;;;;;;0.00;0.00;;;11.20;99.90;;;;;;6297347;22;20080;-82
2021/10/26 09:04:35;;;;;;;0.00;0.00;;;11.30;99.90;;;;;;6297141;22;20015;-81
2021/10/26 09:07:06;;;;;;;0.00;0.00;;;11.40;99.90;;;;;;6297133;22;20042;-82
2021/10/26 09:09:37;;;;;;;0.10;0.10;;;11.50;99.90;;;;;;6322854;22;20025;-82
2021/10/26 09:17:32;;;;;;;0.10;0.10;;;11.60;99.90;;;;;;6302070;22;20019;-88
2021/10/26 09:20:00;;;;;;;0.00;0.00;;;11.60;99.90;;;;;;6271847;22;20022;-81
2021/10/26 09:22:29;;;;;;;0.08;0.08;;;11.60;99.90;;;;;;6322589;22;20015;-82
2021/10/26 09:25:06;;;;;;;0.00;0.00;;;11.50;99.90;;;;;;6271554;22;20093;-81
2021/10/26 09:27:33;;;;;;;0.00;0.00;;;11.50;99.90;;;;;;6297451;22;20110;-80
2021/10/26 09:30:07;;;;;;;0.05;0.05;;;11.50;99.90;;;;;;6296663;22;20077;-81
2021/10/26 09:32:45;;;;;;;0.17;0.17;;;11.60;99.90;;;;;;6297292;22;20008;-80
2021/10/26 09:35:16;;;;;;;0.00;0.00;;;11.70;99.90;;;;;;6321889;22;20019;-80
2021/10/26 09:37:47;;;;;;;0.00;0.00;;;11.80;99.90;;;;;;6296894;22;20454;-80
2021/10/26 09:40:14;;;;;;;0.08;0.08;;;12.00;99.90;;;;;;6322215;22;20012;-80
2021/10/26 09:42:50;;;;;;;0.00;0.00;;;12.00;99.90;;;;;;6271656;22;20463;-80
2021/10/26 09:45:23;;;;;;;0.00;0.00;;;12.10;99.90;;;;;;6295642;22;20038;-80
2021/10/26 09:47:53;;;;;;;0.00;0.00;;;12.10;99.90;;;;;;6324536;22;20069;-80
2021/10/26 09:50:20;;;;;;;0.08;0.08;;;12.20;99.90;;;;;;6271008;22;20019;-80
2021/10/26 09:52:50;;;;;;;0.00;0.00;;;12.20;99.90;;;;;;6296374;22;20479;-80
2021/10/26 09:55:28;;;;;;;0.00;0.00;;;12.20;99.90;;;;;;6271040;22;20019;-80
2021/10/26 09:58:00;;;;;;;0.00;0.00;;;12.20;99.90;;;;;;6273487;22;20338;-80
2021/10/26 10:00:30;;;;;;;0.00;0.00;;;12.30;99.90;;;;;;6296542;22;20506;-80
2021/10/26 10:03:02;;;;;;;0.00;0.00;;;12.30;99.90;;;;;;6271994;22;20007;-80
2021/10/26 10:05:31;;;;;;;0.10;0.10;;;12.30;99.90;;;;;;6322002;22;20017;-80
2021/10/26 10:07:59;;;;;;;0.00;0.00;;;12.40;99.90;;;;;;6296035;22;20015;-81
2021/10/26 10:10:37;;;;;;;0.00;0.00;;;12.40;99.90;;;;;;6296725;22;20046;-80
2021/10/26 10:13:04;;;;;;;0.20;0.15;;;12.50;99.90;;;;;;6296472;22;20073;-80
2021/10/26 10:15:31;;;;;;;0.00;0.00;;;12.60;99.90;;;;;;6245943;22;20023;-80
2021/10/26 10:18:00;;;;;;;0.00;0.00;;;12.70;99.90;;;;;;6296443;22;20074;-80
2021/10/26 10:20:28;;;;;;;0.00;0.00;;;12.80;99.90;;;;;;6272471;22;20030;-81
2021/10/26 10:22:56;;;;;;;0.65;0.52;;;12.90;99.90;;;;;;6271647;22;20011;-81
2021/10/26 10:25:24;;;;;;;0.00;0.00;;;12.90;99.90;;;;;;6271452;22;20011;-82
2021/10/26 10:27:55;;;;;;;0.00;0.00;;;12.80;99.90;;;;;;6297118;22;20019;-82
2021/10/26 10:30:22;;;;;;;0.00;0.00;;;12.80;99.90;;;;;;6296975;22;20015;-82
2021/10/26 10:32:49;;;;;;;0.43;0.35;;;12.80;99.90;;;;;;6297180;22;20026;-81
2021/10/26 10:35:17;;;;;;;0.00;0.00;;;12.80;99.90;;;;;;6271646;22;20019;-82
2021/10/26 10:37:48;;;;;;;0.00;0.00;;;12.80;99.90;;;;;;6246751;22;20015;-81
2021/10/26 10:40:23;;;;;;;0.00;0.00;;;12.90;99.90;;;;;;6296937;22;20015;-82
2021/10/26 10:42:52;;;;;;;0.47;0.10;;;12.90;99.90;;;;;;6322809;22;20461;-81
2021/10/26 10:45:39;;;;;;;0.05;0.00;;;12.90;99.90;;;;;;6322537;22;20057;-82
2021/10/26 10:48:27;;;;;;;0.00;0.00;;;13.10;99.90;;;;;;6322583;22;20015;-82
2021/10/26 10:51:11;;;;;;;0.00;0.00;;;13.10;99.90;;;;;;6297281;22;20018;-82
2021/10/26 10:53:40;;;;;;;0.00;0.00;;;13.20;99.90;;;;;;6271983;22;20026;-82
2021/10/26 10:56:13;;;;;;;0.00;0.00;;;13.20;99.90;;;;;;6296976;22;20022;-82
2021/10/26 10:58:42;;;;;;;0.00;0.00;;;13.10;99.90;;;;;;6297175;22;20098;-82
2021/10/26 11:01:32;;;;;;;0.00;0.00;;;13.10;99.90;;;;;;6271645;22;20020;-81
2021/10/26 11:04:19;;;;;;;0.10;0.10;;;13.10;99.90;;;;;;6297053;22;20018;-82
2021/10/26 11:06:45;;;;;;;0.05;0.05;;;13.10;99.90;;;;;;6322821;22;20054;-90
2021/10/26 11:09:39;;;;;;;0.00;0.00;;;13.10;99.90;;;;;;6296789;22;20011;-83
2021/10/26 11:12:33;;;;;;;0.25;0.10;;;13.10;99.90;;;;;;6296884;22;20471;-85
2021/10/26 11:15:41;;;;;;;0.03;0.03;;;13.10;99.90;;;;;;6299631;22;20026;-88
2021/10/26 11:18:08;;;;;;;0.00;0.00;;;13.00;99.90;;;;;;6324201;22;20540;-82
2021/10/26 11:20:38;;;;;;;0.00;0.00;;;13.00;99.90;;;;;;6249070;22;20019;-82
2021/10/26 11:23:09;;;;;;;0.00;0.00;;;13.00;99.90;;;;;;6274021;22;20015;-82
2021/10/26 11:25:41;;;;;;;0.08;0.08;;;13.00;99.90;;;;;;6299142;22;20014;-83
2021/10/26 11:28:15;;;;;;;0.22;0.20;;;13.10;99.90;;;;;;6299075;22;20018;-87
2021/10/26 11:30:42;;;;;;;0.00;0.00;;;13.10;99.90;;;;;;6297511;22;20470;-87
2021/10/26 11:33:15;;;;;;;0.55;0.17;;;13.10;99.90;;;;;;6298365;22;20069;-80
2021/10/26 11:35:42;;;;;;;0.35;0.10;;;13.20;99.90;;;;;;6324277;22;20019;-81
2021/10/26 11:38:11;;;;;;;0.10;0.10;;;13.20;99.90;;;;;;6323408;22;20026;-80
2021/10/26 11:41:00;;;;;;;0.00;0.00;;;13.20;99.90;;;;;;6298590;22;20026;-80
2021/10/26 11:43:28;;;;;;;0.00;0.00;;;13.30;99.90;;;;;;6298643;22;20018;-81
2021/10/26 11:46:00;;;;;;;0.08;0.08;;;13.30;99.90;;;;;;6298794;22;20019;-81
2021/10/26 11:49:07;;;;;;;0.52;0.30;;;13.30;99.90;;;;;;6298474;22;20022;-80
2021/10/26 11:51:54;;;;;;;0.00;0.00;;;13.30;99.90;;;;;;6238938;22;20459;-81
2021/10/26 11:54:25;;;;;;;0.17;0.10;;;13.30;99.90;;;;;;6323895;22;20015;-81
2021/10/26 11:56:53;;;;;;;0.00;0.00;;;13.30;99.90;;;;;;6298577;22;20031;-81
2021/10/26 11:59:41;;;;;;;0.00;0.00;;;13.30;99.90;;;;;;6298372;22;20015;-80
2021/10/26 12:02:17;;;;;;;0.00;0.00;;;13.30;99.90;;;;;;6273018;22;20025;-81
2021/10/26 12:04:55;;;;;;;0.32;0.20;;;13.20;99.90;;;;;;6323930;22;20050;-81
2021/10/26 12:07:27;;;;;;;0.00;0.00;;;13.20;99.90;;;;;;6297924;22;20011;-80
2021/10/26 12:09:59;;;;;;;0.13;0.10;;;13.20;99.90;;;;;;6298582;22;20015;-80
2021/10/26 12:12:29;;;;;;;0.00;0.00;;;13.20;99.90;;;;;;6298113;22;20011;-80
2021/10/26 12:14:58;;;;;;;0.10;0.10;;;13.10;99.90;;;;;;6298549;22;20019;-80
2021/10/26 12:17:32;;;;;;;0.10;0.10;;;13.10;99.90;;;;;;6297991;22;20374;-80
2021/10/26 12:20:19;;;;;;;0.00;0.00;;;13.10;99.90;;;;;;6298880;22;20023;-80
2021/10/26 12:22:52;;;;;;;0.10;0.10;;;13.10;99.90;;;;;;6298390;22;20120;-81
2021/10/26 12:25:30;;;;;;;0.10;0.10;;;13.00;99.90;;;;;;6322834;22;20388;-81
2021/10/26 12:28:01;;;;;;;0.00;0.00;;;13.00;99.90;;;;;;6273199;22;20015;-80
2021/10/26 12:30:35;;;;;;;0.10;0.10;;;13.00;99.90;;;;;;6297926;22;20019;-81
2021/10/26 12:33:20;;;;;;;0.00;0.00;;;13.00;99.90;;;;;;6298662;22;20011;-80
2021/10/26 12:35:56;;;;;;;0.00;0.00;;;12.90;99.90;;;;;;6324112;22;20432;-81
2021/10/26 12:38:38;;;;;;;0.00;0.00;;;12.90;99.90;;;;;;6298039;22;20027;-81
2021/10/26 12:41:08;;;;;;;0.00;0.00;;;12.90;99.90;;;;;;6272998;22;20333;-81
2021/10/26 12:43:35;;;;;;;0.00;0.00;;;12.80;99.90;;;;;;6297889;22;20491;-80
2021/10/26 12:46:19;;;;;;;0.00;0.00;;;12.80;99.90;;;;;;6323446;22;20448;-80
2021/10/26 12:48:46;;;;;;;0.00;0.00;;;12.90;99.90;;;;;;6298221;22;20499;-80
2021/10/26 12:51:21;;;;;;;0.00;0.00;;;12.90;99.90;;;;;;6273140;22;20460;-81
2021/10/26 12:53:48;;;;;;;0.00;0.00;;;12.90;99.90;;;;;;6298165;22;20034;-80
2021/10/26 12:56:17;;;;;;;0.13;0.13;;;12.90;99.90;;;;;;6273267;22;20025;-80
2021/10/26 12:58:46;;;;;;;0.00;0.00;;;12.90;99.90;;;;;;6297809;22;20344;-80
2021/10/26 13:01:29;;;;;;;0.13;0.10;;;12.90;99.90;;;;;;6323399;22;20018;-81
2021/10/26 13:04:02;;;;;;;0.13;0.13;;;13.00;99.90;;;;;;6323564;22;20011;-80
2021/10/26 13:06:34;;;;;;;0.10;0.10;;;13.00;99.90;;;;;;6297563;22;20023;-81
2021/10/26 13:09:03;;;;;;;0.00;0.00;;;13.00;99.90;;;;;;6298828;22;20011;-80
2021/10/26 13:11:35;;;;;;;0.10;0.10;;;13.00;99.90;;;;;;6323237;22;20019;-81
2021/10/26 13:14:20;;;;;;;0.00;0.00;;;13.00;99.90;;;;;;6297959;22;20019;-80
2021/10/26 13:16:48;;;;;;;0.10;0.10;;;13.00;99.90;;;;;;6297704;22;20057;-81